Hooven, Ohio
Current Conditions -  °F | °C
As of 6:55 PM on Saturday 22 Nov 2014 (Local Time) from KI67 Reporting Station
Overcast Overcast  
Wind Chill: 55°   Ceiling: 9000
Heat Index: 55°   Visibility: 10mi
Dew Point: 34°   Wind: 9mph
Humidity: 44%   Direction: 200°SSW
Pressure: 30.07"   Gusts: NA
Location:  39.18°N, 84.76°W
Report Text: KI67 222355Z AUTO 20008KT 10SM SCT075 OVC090 13/01 A3007 RMK AO1
Loading
Personal Weather Stations






























Interactive Weather Map New forecast layout! Learn more

10-Day Weather Forecast

Advertisements
Track Severe Weather on mobile